createdAt,value
2024-04-18T00:02:11.988Z,74.85
2024-04-18T00:04:43.324Z,75.01
2024-04-18T00:07:14.660Z,74.81
2024-04-18T00:09:45.736Z,74.97
2024-04-18T00:12:17.046Z,74.96
2024-04-18T00:14:48.126Z,74.94
2024-04-18T00:17:17.794Z,74.83
2024-04-18T00:19:48.759Z,74.82
2024-04-18T00:22:19.375Z,74.94
2024-04-18T00:24:50.827Z,74.92
2024-04-18T00:27:21.985Z,74.76
2024-04-18T00:29:52.016Z,74.66
2024-04-18T00:32:23.189Z,74.37
2024-04-18T00:34:54.333Z,74.09
2024-04-18T00:37:25.581Z,74.12
2024-04-18T00:39:56.731Z,74.20
2024-04-18T00:42:27.881Z,74.14
2024-04-18T00:44:58.910Z,74.26
2024-04-18T00:47:30.495Z,74.09
2024-04-18T00:50:02.232Z,74.03
2024-04-18T00:52:33.366Z,73.86
2024-04-18T00:55:04.925Z,73.70
2024-04-18T00:57:38.125Z,73.97
2024-04-18T01:00:11.631Z,74.25
2024-04-18T01:02:44.533Z,74.54
2024-04-18T01:05:16.480Z,74.77
2024-04-18T01:07:47.730Z,74.72
2024-04-18T01:10:18.913Z,74.73
2024-04-18T01:12:59.960Z,74.78
2024-04-18T01:15:31.067Z,74.80
2024-04-18T01:18:02.270Z,74.77
2024-04-18T01:20:34.400Z,74.72
2024-04-18T01:23:06.876Z,74.49
2024-04-18T01:25:38.022Z,74.60
2024-04-18T01:28:07.808Z,74.78
2024-04-18T01:30:38.708Z,74.77
2024-04-18T01:33:09.929Z,74.75
2024-04-18T01:35:41.358Z,74.63
2024-04-18T01:38:12.338Z,74.33
2024-04-18T01:40:43.332Z,74.48
2024-04-18T01:43:14.388Z,74.70
2024-04-18T01:45:46.024Z,74.73
2024-04-18T01:48:17.353Z,74.81
2024-04-18T01:50:48.800Z,75.03
2024-04-18T01:53:19.756Z,75.04
2024-04-18T01:55:50.778Z,75.15
2024-04-18T01:58:21.990Z,75.05
2024-04-18T02:00:53.084Z,75.08
2024-04-18T02:03:22.743Z,75.18
2024-04-18T02:05:54.178Z,75.15
2024-04-18T02:08:25.124Z,74.72
2024-04-18T02:10:56.275Z,74.60
2024-04-18T02:13:27.335Z,74.77
2024-04-18T02:15:56.817Z,74.70
2024-04-18T02:18:28.044Z,74.92
2024-04-18T02:20:59.146Z,74.71
2024-04-18T02:23:29.815Z,74.82
2024-04-18T02:26:01.093Z,74.84
2024-04-18T02:28:32.513Z,74.89
2024-04-18T02:31:04.450Z,74.74
2024-04-18T02:33:35.918Z,74.72
2024-04-18T02:36:07.658Z,74.89
2024-04-18T02:38:38.644Z,74.93
2024-04-18T02:41:08.903Z,74.87
2024-04-18T02:43:39.985Z,75.22
2024-04-18T02:46:09.706Z,75.10
2024-04-18T02:48:40.885Z,74.94
2024-04-18T02:51:10.654Z,75.10
2024-04-18T02:53:41.700Z,75.42
2024-04-18T02:56:12.758Z,75.65
2024-04-18T02:58:42.562Z,75.70
2024-04-18T03:01:13.738Z,75.45
2024-04-18T03:03:44.807Z,75.64
2024-04-18T03:06:16.130Z,75.75
2024-04-18T03:08:46.310Z,76.00
2024-04-18T03:11:17.466Z,76.08
2024-04-18T03:13:48.457Z,75.97
2024-04-18T03:16:19.715Z,75.86
2024-04-18T03:18:50.967Z,76.00
2024-04-18T03:21:22.001Z,75.94
2024-04-18T03:23:53.330Z,76.10
2024-04-18T03:26:24.694Z,76.04
2024-04-18T03:28:56.272Z,76.12
2024-04-18T03:31:28.618Z,76.19
2024-04-18T03:33:59.820Z,76.19
2024-04-18T03:36:31.393Z,75.72
2024-04-18T03:39:03.622Z,75.84
2024-04-18T03:41:35.321Z,75.95
2024-04-18T03:44:06.657Z,75.95
2024-04-18T03:46:38.162Z,76.08
2024-04-18T03:49:09.659Z,76.06
2024-04-18T03:51:40.846Z,75.97
2024-04-18T03:54:11.907Z,76.17
2024-04-18T03:56:42.105Z,76.22
2024-04-18T03:59:13.684Z,76.14
2024-04-18T04:01:44.963Z,75.95
2024-04-18T04:04:16.048Z,76.05
2024-04-18T04:06:47.260Z,76.13
2024-04-18T04:09:18.399Z,76.01
2024-04-18T04:11:48.341Z,76.09
2024-04-18T04:14:19.643Z,76.17
2024-04-18T04:16:50.852Z,76.20
2024-04-18T04:19:21.965Z,76.28
2024-04-18T04:21:53.589Z,76.28
2024-04-18T04:24:24.174Z,76.31
2024-04-18T04:26:55.751Z,76.11
2024-04-18T04:29:26.694Z,76.29
2024-04-18T04:31:57.793Z,76.39
2024-04-18T04:34:28.856Z,76.63
2024-04-18T04:36:58.553Z,76.72
2024-04-18T04:39:28.245Z,76.79
2024-04-18T04:41:59.411Z,76.73
2024-04-18T04:44:28.848Z,76.90
2024-04-18T04:47:00.185Z,77.21
2024-04-18T04:49:31.427Z,77.32
2024-04-18T04:52:02.545Z,77.26
2024-04-18T04:54:32.263Z,77.28
2024-04-18T04:57:03.816Z,77.26
2024-04-18T04:59:34.712Z,77.29
2024-04-18T05:02:06.407Z,77.24
2024-04-18T05:04:37.673Z,77.31
2024-04-18T05:07:09.094Z,77.41
2024-04-18T05:09:40.353Z,77.30
2024-04-18T05:12:11.713Z,77.33
2024-04-18T05:14:42.710Z,77.10
2024-04-18T05:17:13.748Z,76.94
2024-04-18T05:19:45.255Z,76.97
2024-04-18T05:22:14.934Z,76.84
2024-04-18T05:24:46.261Z,76.85
2024-04-18T05:27:17.548Z,76.81
2024-04-18T05:30:02.554Z,76.88
2024-04-18T05:32:34.024Z,76.77
2024-04-18T05:35:05.450Z,76.81
2024-04-18T05:37:36.769Z,76.91
2024-04-18T05:40:10.139Z,76.99
2024-04-18T05:42:41.223Z,77.14
2024-04-18T05:45:12.302Z,77.21
2024-04-18T05:47:43.506Z,77.14
2024-04-18T05:50:14.832Z,77.12
2024-04-18T05:52:46.003Z,76.97
2024-04-18T05:55:17.314Z,76.88
2024-04-18T05:57:48.354Z,76.82
2024-04-18T06:00:18.265Z,76.96
2024-04-18T06:02:47.868Z,76.79
2024-04-18T06:05:19.349Z,76.57
2024-04-18T06:07:50.392Z,76.31
2024-04-18T06:10:22.019Z,76.21
2024-04-18T06:12:53.250Z,76.35
2024-04-18T06:15:24.408Z,76.47
2024-04-18T06:17:55.711Z,76.57
2024-04-18T06:20:27.579Z,76.57
2024-04-18T06:22:58.640Z,76.67
2024-04-18T06:25:32.141Z,76.67
2024-04-18T06:28:04.147Z,76.63
2024-04-18T06:30:35.158Z,76.66
2024-04-18T06:33:06.075Z,76.75
2024-04-18T06:35:37.650Z,76.30
2024-04-18T06:38:09.975Z,76.21
2024-04-18T06:40:41.265Z,76.09
2024-04-18T06:43:12.291Z,75.79
2024-04-18T06:45:42.337Z,75.39
2024-04-18T06:48:13.606Z,75.29
2024-04-18T06:50:45.359Z,75.33
2024-04-18T06:53:16.531Z,74.68
2024-04-18T06:55:49.085Z,74.48
2024-04-18T06:58:20.061Z,74.67
2024-04-18T07:00:50.417Z,74.77
2024-04-18T07:03:21.565Z,74.98
2024-04-18T07:05:53.098Z,74.79
2024-04-18T07:08:25.154Z,74.72
2024-04-18T07:10:56.297Z,74.78
2024-04-18T07:13:27.430Z,74.85
2024-04-18T07:15:58.665Z,74.50
2024-04-18T07:18:30.062Z,74.42
2024-04-18T07:21:01.265Z,74.29
2024-04-18T07:23:32.517Z,74.06
2024-04-18T07:26:04.084Z,73.64
2024-04-18T07:28:35.217Z,73.42
2024-04-18T07:31:06.578Z,72.96
2024-04-18T07:33:38.383Z,72.54
2024-04-18T07:36:09.778Z,72.26
2024-04-18T07:38:41.003Z,72.03
2024-04-18T07:41:12.117Z,71.82
2024-04-18T07:43:43.312Z,71.35
2024-04-18T07:46:15.030Z,71.31
2024-04-18T07:48:47.672Z,71.24
2024-04-18T07:51:18.979Z,71.41
2024-04-18T07:53:50.152Z,71.54
2024-04-18T07:56:22.053Z,70.92
2024-04-18T07:58:54.111Z,69.58
2024-04-18T08:01:27.331Z,69.21
2024-04-18T08:04:17.173Z,69.07
2024-04-18T08:06:55.028Z,68.40
2024-04-18T08:09:31.428Z,68.04
2024-04-18T08:12:23.289Z,67.93
2024-04-18T08:15:00.709Z,67.70
2024-04-18T08:17:35.374Z,67.88
2024-04-18T08:20:09.396Z,67.91
2024-04-18T08:22:40.861Z,67.69
2024-04-18T08:25:12.693Z,67.61
2024-04-18T08:27:43.982Z,67.35
2024-04-18T08:30:15.818Z,67.47
2024-04-18T08:32:47.249Z,67.34
2024-04-18T08:35:20.136Z,66.99
2024-04-18T08:37:51.571Z,66.88
2024-04-18T08:40:22.923Z,66.23
2024-04-18T08:42:54.990Z,66.49
2024-04-18T08:45:27.875Z,66.55
2024-04-18T08:47:59.992Z,66.64
2024-04-18T08:50:32.509Z,66.52
2024-04-18T08:53:06.199Z,66.77
2024-04-18T08:55:39.468Z,67.24
2024-04-18T08:58:12.394Z,67.25
2024-04-18T09:00:46.006Z,67.56
2024-04-18T09:03:17.382Z,67.84
2024-04-18T09:05:49.210Z,68.15
2024-04-18T09:08:21.011Z,68.48
2024-04-18T09:10:53.865Z,68.08
2024-04-18T09:13:26.257Z,68.25
2024-04-18T09:15:59.127Z,68.38
2024-04-18T09:18:35.721Z,68.53
2024-04-18T09:21:11.106Z,68.67
2024-04-18T09:23:43.481Z,68.22
2024-04-18T09:26:14.826Z,68.04
2024-04-18T09:28:46.289Z,67.39
2024-04-18T09:31:27.607Z,67.32
2024-04-18T09:34:07.840Z,67.08
2024-04-18T09:36:42.715Z,67.29
2024-04-18T09:39:23.542Z,67.23
2024-04-18T09:42:03.546Z,66.80
2024-04-18T09:44:38.267Z,67.18
2024-04-18T09:47:11.324Z,66.45
2024-04-18T09:49:43.981Z,65.97
2024-04-18T09:52:16.540Z,66.02
2024-04-18T09:54:48.327Z,65.07
2024-04-18T09:57:20.679Z,64.54
2024-04-18T09:59:53.631Z,64.57
2024-04-18T10:02:25.902Z,64.03
2024-04-18T10:04:58.314Z,62.93
2024-04-18T10:07:31.022Z,62.67
2024-04-18T10:10:03.238Z,62.82
2024-04-18T10:12:36.337Z,62.38
2024-04-18T10:15:10.450Z,62.15
2024-04-18T10:17:41.836Z,62.24
2024-04-18T10:20:16.521Z,61.88
2024-04-18T10:23:01.188Z,61.74
2024-04-18T10:25:41.787Z,61.78
2024-04-18T10:28:26.860Z,61.84
2024-04-18T10:31:06.754Z,61.00
2024-04-18T10:33:45.623Z,59.76
2024-04-18T10:36:17.277Z,59.03
2024-04-18T10:38:49.825Z,59.02
2024-04-18T10:41:24.612Z,57.90
2024-04-18T10:43:58.921Z,56.30
2024-04-18T10:46:31.330Z,56.37
2024-04-18T10:49:02.789Z,56.60
2024-04-18T10:51:36.032Z,56.73
2024-04-18T10:54:12.378Z,57.28
2024-04-18T10:56:44.186Z,56.68
2024-04-18T10:59:15.539Z,57.22
2024-04-18T11:01:46.778Z,57.30
2024-04-18T11:04:18.187Z,57.54
2024-04-18T11:06:49.612Z,57.78
2024-04-18T11:09:21.673Z,58.23
2024-04-18T11:11:53.193Z,57.76
2024-04-18T11:14:26.492Z,57.86
2024-04-18T11:17:01.305Z,57.51
2024-04-18T11:19:33.928Z,57.83
2024-04-18T11:22:05.444Z,57.75
2024-04-18T11:24:37.531Z,57.71
2024-04-18T11:27:09.504Z,57.55
2024-04-18T11:29:44.176Z,57.39
2024-04-18T11:32:16.404Z,56.67
2024-04-18T11:34:50.385Z,55.55
2024-04-18T11:37:26.023Z,55.40
2024-04-18T11:39:59.392Z,55.25
2024-04-18T11:42:30.661Z,54.55
2024-04-18T11:45:02.067Z,55.01
2024-04-18T11:47:34.345Z,55.53
2024-04-18T11:50:07.654Z,54.08
2024-04-18T11:52:38.793Z,54.10
2024-04-18T11:55:09.849Z,54.36
2024-04-18T11:57:41.204Z,54.27
2024-04-18T12:00:14.670Z,54.57
2024-04-18T12:02:53.139Z,54.54
2024-04-18T12:05:24.841Z,54.02
2024-04-18T12:07:56.752Z,53.80
2024-04-18T12:10:27.836Z,53.83
2024-04-18T12:12:59.101Z,53.64
2024-04-18T12:15:32.819Z,53.13
2024-04-18T12:18:05.191Z,52.95
2024-04-18T12:20:36.312Z,52.62
2024-04-18T12:23:07.715Z,51.70
2024-04-18T12:25:39.005Z,51.70
2024-04-18T12:28:10.176Z,51.36
2024-04-18T12:30:41.464Z,51.90
2024-04-18T12:33:14.119Z,52.62
2024-04-18T12:35:50.929Z,53.00
2024-04-18T12:38:22.292Z,51.55
2024-04-18T12:40:54.838Z,51.11
2024-04-18T12:43:26.555Z,52.76
2024-04-18T12:46:06.806Z,53.78
2024-04-18T12:48:46.037Z,54.55
2024-04-18T12:51:17.917Z,55.25
2024-04-18T12:53:49.622Z,55.19
2024-04-18T12:56:21.743Z,55.56
2024-04-18T12:58:52.612Z,55.98
2024-04-18T13:01:23.740Z,56.08
2024-04-18T13:03:56.676Z,56.03
2024-04-18T13:06:29.333Z,55.83
2024-04-18T13:09:00.787Z,56.11
2024-04-18T13:11:32.704Z,55.18
2024-04-18T13:14:05.426Z,54.44
2024-04-18T13:16:37.164Z,52.87
2024-04-18T13:19:08.213Z,52.14
2024-04-18T13:21:39.655Z,51.90
2024-04-18T13:24:12.242Z,51.77
2024-04-18T13:26:43.841Z,51.16
2024-04-18T13:29:15.367Z,51.57
2024-04-18T13:31:46.825Z,51.33
2024-04-18T13:34:18.222Z,51.23
2024-04-18T13:36:49.625Z,51.49
2024-04-18T13:39:21.018Z,51.84
2024-04-18T13:41:52.379Z,52.60
2024-04-18T13:44:23.574Z,51.85
2024-04-18T13:46:54.858Z,52.18
2024-04-18T13:49:26.172Z,52.80
2024-04-18T13:51:57.426Z,52.25
2024-04-18T13:54:28.587Z,52.02
2024-04-18T13:56:59.835Z,52.06
2024-04-18T13:59:31.040Z,51.81
2024-04-18T14:02:04.113Z,51.15
2024-04-18T14:04:35.294Z,51.62
2024-04-18T14:07:07.381Z,51.22
2024-04-18T14:09:42.851Z,50.58
2024-04-18T14:12:14.576Z,50.45
2024-04-18T14:14:46.350Z,50.47
2024-04-18T14:17:33.957Z,50.06
2024-04-18T14:20:06.486Z,49.90
2024-04-18T14:22:38.060Z,49.90
2024-04-18T14:25:09.676Z,49.82
2024-04-18T14:27:41.163Z,50.46
2024-04-18T14:30:13.449Z,50.45
2024-04-18T14:32:44.781Z,50.86
2024-04-18T14:35:16.227Z,50.94
2024-04-18T14:37:47.579Z,50.68
2024-04-18T14:40:18.766Z,50.69
2024-04-18T14:42:50.086Z,50.27
2024-04-18T14:45:21.275Z,50.25
2024-04-18T14:47:52.685Z,49.64
2024-04-18T14:50:24.244Z,48.86
2024-04-18T14:52:55.596Z,48.84
2024-04-18T14:55:28.451Z,48.74
2024-04-18T14:57:59.839Z,48.72
2024-04-18T15:00:32.521Z,47.59
2024-04-18T15:03:04.021Z,47.57
2024-04-18T15:05:35.482Z,47.12
2024-04-18T15:08:09.330Z,47.17
2024-04-18T15:10:40.608Z,46.30
2024-04-18T15:13:12.428Z,45.22
2024-04-18T15:15:45.804Z,44.27
2024-04-18T15:18:17.305Z,43.57
2024-04-18T15:20:48.694Z,43.47
2024-04-18T15:23:19.915Z,43.76
2024-04-18T15:25:51.167Z,43.84
2024-04-18T15:28:22.597Z,44.73
2024-04-18T15:30:54.416Z,43.60
2024-04-18T15:33:25.398Z,42.50
2024-04-18T15:35:56.185Z,41.58
2024-04-18T15:38:25.659Z,40.95
2024-04-18T15:40:55.653Z,39.31
2024-04-18T15:43:26.619Z,38.65
2024-04-18T15:45:59.281Z,38.65
2024-04-18T15:48:32.052Z,37.78
2024-04-18T15:51:03.587Z,38.09
2024-04-18T15:53:35.465Z,38.22
2024-04-18T15:56:06.982Z,37.82
2024-04-18T15:58:37.945Z,37.79
2024-04-18T16:01:08.843Z,37.24
2024-04-18T16:03:40.666Z,37.67
2024-04-18T16:06:11.826Z,37.47
2024-04-18T16:08:43.024Z,38.28
2024-04-18T16:11:13.791Z,38.58
2024-04-18T16:13:43.191Z,38.61
2024-04-18T16:16:12.791Z,38.65
2024-04-18T16:18:44.422Z,38.51
2024-04-18T16:21:15.664Z,38.57
2024-04-18T16:23:46.591Z,38.43
2024-04-18T16:26:17.766Z,39.10
2024-04-18T16:28:48.798Z,39.56
2024-04-18T16:31:20.410Z,39.79
2024-04-18T16:33:51.412Z,40.32
2024-04-18T16:36:31.528Z,41.14
2024-04-18T16:39:10.839Z,41.83
2024-04-18T16:41:42.630Z,41.97
2024-04-18T16:44:13.693Z,42.30
2024-04-18T16:46:44.588Z,42.58
2024-04-18T16:49:15.540Z,42.83
2024-04-18T16:51:49.253Z,43.51
2024-04-18T16:54:20.380Z,43.76
2024-04-18T16:56:51.291Z,44.07
2024-04-18T16:59:21.300Z,44.10
2024-04-18T17:01:52.284Z,44.12
2024-04-18T17:04:23.454Z,44.29
2024-04-18T17:06:54.607Z,44.46
2024-04-18T17:09:25.846Z,44.89
2024-04-18T17:11:57.189Z,45.15
2024-04-18T17:14:28.291Z,45.29
2024-04-18T17:16:59.296Z,45.46
2024-04-18T17:19:32.902Z,45.21
2024-04-18T17:22:07.446Z,45.33
2024-04-18T17:24:38.862Z,45.46
2024-04-18T17:27:10.225Z,45.71
2024-04-18T17:29:42.425Z,45.91
2024-04-18T17:32:13.824Z,46.31
2024-04-18T17:34:45.299Z,46.57
2024-04-18T17:37:16.592Z,46.84
2024-04-18T17:39:49.167Z,47.11
2024-04-18T17:42:20.262Z,47.49
2024-04-18T17:44:51.945Z,47.94
2024-04-18T17:47:23.118Z,48.24
2024-04-18T17:49:54.613Z,48.71
2024-04-18T17:52:25.496Z,48.97
2024-04-18T17:54:59.443Z,49.44
2024-04-18T17:57:31.957Z,49.78
2024-04-18T18:00:02.907Z,50.09
2024-04-18T18:02:34.147Z,50.50
2024-04-18T18:05:06.351Z,50.28
2024-04-18T18:07:37.679Z,50.18
2024-04-18T18:10:09.686Z,50.60
2024-04-18T18:12:40.799Z,50.80
2024-04-18T18:15:12.936Z,50.84
2024-04-18T18:17:44.783Z,50.87
2024-04-18T18:20:16.242Z,51.08
2024-04-18T18:22:47.389Z,50.88
2024-04-18T18:25:18.582Z,51.05
2024-04-18T18:27:49.682Z,51.22
2024-04-18T18:30:21.002Z,51.38
2024-04-18T18:32:52.574Z,51.72
2024-04-18T18:35:24.156Z,52.07
2024-04-18T18:37:57.821Z,52.50
2024-04-18T18:40:28.926Z,52.67
2024-04-18T18:43:01.759Z,53.01
2024-04-18T18:45:33.427Z,52.95
2024-04-18T18:48:05.390Z,53.25
2024-04-18T18:50:42.682Z,53.42
2024-04-18T18:53:14.004Z,53.45
2024-04-18T18:55:47.472Z,53.14
2024-04-18T18:58:18.806Z,53.06
2024-04-18T19:00:50.453Z,52.98
2024-04-18T19:03:22.239Z,53.07
2024-04-18T19:05:53.491Z,52.91
2024-04-18T19:08:24.521Z,52.80
2024-04-18T19:10:56.698Z,52.82
2024-04-18T19:13:29.304Z,52.52
2024-04-18T19:16:00.783Z,52.46
2024-04-18T19:18:31.783Z,52.24
2024-04-18T19:21:02.988Z,52.19
2024-04-18T19:23:43.370Z,52.21
2024-04-18T19:26:16.849Z,52.59
2024-04-18T19:28:48.043Z,52.46
2024-04-18T19:31:20.760Z,52.43
2024-04-18T19:33:55.364Z,52.27
2024-04-18T19:36:26.778Z,52.44
2024-04-18T19:38:57.635Z,52.55
2024-04-18T19:41:28.556Z,52.54
2024-04-18T19:43:58.196Z,52.80
2024-04-18T19:46:29.132Z,53.02
2024-04-18T19:49:00.799Z,53.38
2024-04-18T19:51:33.219Z,53.51
2024-04-18T19:54:04.607Z,53.98
2024-04-18T19:56:35.956Z,54.30
2024-04-18T19:59:07.292Z,54.64
2024-04-18T20:01:38.955Z,54.78
2024-04-18T20:04:10.241Z,55.02
2024-04-18T20:06:42.624Z,55.29
2024-04-18T20:09:14.097Z,55.52
2024-04-18T20:11:45.028Z,55.70
2024-04-18T20:14:14.624Z,55.67
2024-04-18T20:16:45.805Z,55.98
2024-04-18T20:19:17.938Z,56.12
2024-04-18T20:21:49.535Z,56.13
2024-04-18T20:24:20.558Z,56.30
2024-04-18T20:26:52.091Z,56.70
2024-04-18T20:29:21.874Z,56.76
2024-04-18T20:31:51.430Z,56.98
2024-04-18T20:34:23.295Z,57.10
2024-04-18T20:36:54.317Z,57.06
2024-04-18T20:39:23.765Z,57.34
2024-04-18T20:41:55.274Z,57.46
2024-04-18T20:44:26.197Z,57.70
2024-04-18T20:46:57.132Z,57.89
2024-04-18T20:49:28.443Z,58.29
2024-04-18T20:52:00.124Z,58.40
2024-04-18T20:54:31.217Z,58.57
2024-04-18T20:57:02.315Z,58.67
2024-04-18T20:59:31.965Z,58.93
2024-04-18T21:02:03.026Z,59.09
2024-04-18T21:04:34.669Z,59.21
2024-04-18T21:07:06.353Z,59.55
2024-04-18T21:09:37.627Z,59.73
2024-04-18T21:12:09.729Z,59.77
2024-04-18T21:14:41.273Z,59.83
2024-04-18T21:17:12.378Z,60.09
2024-04-18T21:19:43.838Z,60.33
2024-04-18T21:22:14.888Z,60.39
2024-04-18T21:24:44.772Z,60.52
2024-04-18T21:27:16.088Z,60.63
2024-04-18T21:29:47.955Z,60.80
2024-04-18T21:32:19.541Z,60.69
2024-04-18T21:34:50.675Z,60.68
2024-04-18T21:37:21.649Z,60.71
2024-04-18T21:39:52.943Z,60.78
2024-04-18T21:42:24.806Z,60.90
2024-04-18T21:44:55.814Z,61.04
2024-04-18T21:47:25.519Z,61.17
2024-04-18T21:49:56.684Z,61.42
2024-04-18T21:52:28.349Z,61.52
2024-04-18T21:54:59.612Z,61.60
2024-04-18T21:57:30.777Z,61.60
2024-04-18T22:00:01.720Z,61.80
2024-04-18T22:02:33.647Z,61.60
2024-04-18T22:05:05.144Z,61.78
2024-04-18T22:07:36.370Z,62.01
2024-04-18T22:10:09.874Z,62.13
2024-04-18T22:12:41.054Z,62.17
2024-04-18T22:15:12.626Z,62.32
2024-04-18T22:17:43.804Z,62.42
2024-04-18T22:20:14.792Z,62.50
2024-04-18T22:22:46.368Z,62.66
2024-04-18T22:25:17.675Z,62.83
2024-04-18T22:27:48.722Z,62.81
2024-04-18T22:30:19.847Z,62.71
2024-04-18T22:32:49.655Z,62.69
2024-04-18T22:35:19.564Z,62.94
2024-04-18T22:37:49.558Z,63.19
2024-04-18T22:40:21.065Z,63.49
2024-04-18T22:42:52.350Z,63.68
2024-04-18T22:45:23.383Z,63.58
2024-04-18T22:47:54.659Z,63.86
2024-04-18T22:50:25.811Z,63.83
2024-04-18T22:52:56.858Z,63.87
2024-04-18T22:55:26.342Z,63.96
2024-04-18T22:58:01.255Z,64.01
2024-04-18T23:00:36.251Z,64.01
2024-04-18T23:03:08.221Z,64.08
2024-04-18T23:05:39.692Z,64.26
2024-04-18T23:08:11.127Z,64.34
2024-04-18T23:10:42.452Z,64.48
2024-04-18T23:13:13.695Z,64.52
2024-04-18T23:15:45.018Z,64.58
2024-04-18T23:18:16.668Z,64.50
2024-04-18T23:20:47.976Z,64.53
2024-04-18T23:23:19.464Z,64.53
2024-04-18T23:25:50.694Z,64.49
2024-04-18T23:28:22.080Z,64.44
2024-04-18T23:30:51.757Z,64.67
2024-04-18T23:33:23.036Z,64.83
2024-04-18T23:35:54.195Z,64.97
2024-04-18T23:38:23.776Z,64.89
2024-04-18T23:40:54.850Z,65.09
2024-04-18T23:43:26.115Z,65.06
2024-04-18T23:45:57.767Z,65.05
2024-04-18T23:48:28.903Z,64.98
2024-04-18T23:50:59.991Z,64.99
2024-04-18T23:53:29.574Z,64.81
2024-04-18T23:56:00.816Z,64.60
2024-04-18T23:58:33.908Z,64.38
